createdAt,value
2023-11-15T00:01:21.336Z,101097.75
2023-11-15T00:03:50.232Z,101109.63
2023-11-15T00:06:18.592Z,101108.78
2023-11-15T00:08:45.811Z,101114.78
2023-11-15T00:11:17.408Z,101113.31
2023-11-15T00:13:47.122Z,101119.75
2023-11-15T00:16:15.507Z,101125.38
2023-11-15T00:18:43.704Z,101125.38
2023-11-15T00:21:12.036Z,101129.53
2023-11-15T00:23:40.166Z,101132.06
2023-11-15T00:26:08.478Z,101138.69
2023-11-15T00:28:40.293Z,101146.16
2023-11-15T00:31:10.511Z,101141.16
2023-11-15T00:33:38.875Z,101150.09
2023-11-15T00:36:12.723Z,101145.75
2023-11-15T00:38:41.474Z,101135.75
2023-11-15T00:41:09.654Z,101137.22
2023-11-15T00:43:37.875Z,101134.34
2023-11-15T00:46:06.722Z,101151.59
2023-11-15T00:48:36.648Z,101132.84
2023-11-15T00:51:05.435Z,101139.50
2023-11-15T00:53:33.698Z,101142.56
2023-11-15T00:56:02.411Z,101140.25
2023-11-15T00:58:32.113Z,101144.41
2023-11-15T01:01:01.259Z,101140.47
2023-11-15T01:03:31.177Z,101154.81
2023-11-15T01:06:04.707Z,101155.88
2023-11-15T01:08:34.243Z,101158.94
2023-11-15T01:11:02.484Z,101165.22
2023-11-15T01:13:33.832Z,101169.97
2023-11-15T01:16:02.223Z,101170.16
2023-11-15T01:18:31.560Z,101169.97
2023-11-15T01:21:02.731Z,101169.56
2023-11-15T01:23:31.270Z,101179.34
2023-11-15T01:25:59.690Z,101180.56
2023-11-15T01:28:27.877Z,101185.16
2023-11-15T01:30:56.262Z,101184.00
2023-11-15T01:33:24.520Z,101190.25
2023-11-15T01:35:53.989Z,101189.41
2023-11-15T01:38:23.641Z,101201.06
2023-11-15T01:40:51.838Z,101201.47
2023-11-15T01:43:20.138Z,101193.19
2023-11-15T01:45:48.763Z,101191.91
2023-11-15T01:48:18.342Z,101191.25
2023-11-15T01:50:48.957Z,101187.16
2023-11-15T01:53:20.424Z,101197.56
2023-11-15T01:55:53.165Z,101198.63
2023-11-15T01:58:21.641Z,101189.47
2023-11-15T02:00:49.914Z,101197.97
2023-11-15T02:03:19.580Z,101193.59
2023-11-15T02:05:48.595Z,101207.75
2023-11-15T02:08:18.635Z,101200.50
2023-11-15T02:10:47.216Z,101206.91
2023-11-15T02:13:24.576Z,101212.78
2023-11-15T02:15:53.535Z,101204.84
2023-11-15T02:18:23.190Z,101217.34
2023-11-15T02:20:52.306Z,101222.31
2023-11-15T02:23:23.308Z,101220.66
2023-11-15T02:25:53.329Z,101220.19
2023-11-15T02:28:21.765Z,101219.16
2023-11-15T02:30:50.299Z,101217.69
2023-11-15T02:33:19.170Z,101224.09
2023-11-15T02:35:47.654Z,101218.31
2023-11-15T02:38:16.452Z,101221.78
2023-11-15T02:40:45.419Z,101216.78
2023-11-15T02:43:17.727Z,101218.66
2023-11-15T02:45:45.969Z,101218.84
2023-11-15T02:48:14.383Z,101223.41
2023-11-15T02:50:42.710Z,101218.84
2023-11-15T02:53:10.815Z,101224.25
2023-11-15T02:55:39.364Z,101218.84
2023-11-15T02:58:07.570Z,101226.75
2023-11-15T03:00:40.111Z,101223.41
2023-11-15T03:03:08.414Z,101220.91
2023-11-15T03:05:38.319Z,101224.63
2023-11-15T03:08:07.644Z,101233.78
2023-11-15T03:10:36.355Z,101240.47
2023-11-15T03:13:04.811Z,101231.75
2023-11-15T03:15:33.348Z,101225.09
2023-11-15T03:18:03.085Z,101222.59
2023-11-15T03:20:32.154Z,101232.81
2023-11-15T03:23:00.563Z,101228.03
2023-11-15T03:25:30.161Z,101240.94
2023-11-15T03:27:58.338Z,101240.06
2023-11-15T03:30:26.602Z,101241.78
2023-11-15T03:32:56.246Z,101244.88
2023-11-15T03:35:25.970Z,101252.16
2023-11-15T03:37:56.979Z,101251.28
2023-11-15T03:40:25.354Z,101250.28
2023-11-15T03:42:54.656Z,101256.31
2023-11-15T03:45:22.832Z,101259.41
2023-11-15T03:47:53.757Z,101261.34
2023-11-15T03:50:22.293Z,101265.91
2023-11-15T03:52:52.885Z,101253.25
2023-11-15T03:55:21.184Z,101269.84
2023-11-15T03:57:49.529Z,101261.94
2023-11-15T04:00:19.113Z,101272.09
2023-11-15T04:02:47.749Z,101271.25
2023-11-15T04:05:18.119Z,101272.75
2023-11-15T04:07:46.977Z,101280.41
2023-11-15T04:10:16.731Z,101277.94
2023-11-15T04:12:47.584Z,101286.44
2023-11-15T04:15:19.221Z,101288.53
2023-11-15T04:17:48.213Z,101283.75
2023-11-15T04:20:16.497Z,101298.69
2023-11-15T04:22:47.810Z,101304.94
2023-11-15T04:25:17.568Z,101296.25
2023-11-15T04:27:45.909Z,101304.53
2023-11-15T04:30:19.459Z,101304.38
2023-11-15T04:32:48.715Z,101308.47
2023-11-15T04:35:18.040Z,101304.75
2023-11-15T04:37:46.298Z,101318.63
2023-11-15T04:40:14.656Z,101309.91
2023-11-15T04:42:44.265Z,101313.00
2023-11-15T04:45:13.168Z,101304.88
2023-11-15T04:47:44.562Z,101306.94
2023-11-15T04:50:12.767Z,101317.75
2023-11-15T04:52:40.968Z,101321.44
2023-11-15T04:55:11.411Z,101317.47
2023-11-15T04:57:40.553Z,101329.31
2023-11-15T05:00:13.676Z,101323.44
2023-11-15T05:02:41.920Z,101323.44
2023-11-15T05:05:11.981Z,101331.75
2023-11-15T05:07:40.446Z,101340.69
2023-11-15T05:10:10.906Z,101342.56
2023-11-15T05:12:39.365Z,101332.50
2023-11-15T05:15:08.231Z,101340.03
2023-11-15T05:17:38.006Z,101342.94
2023-11-15T05:20:07.886Z,101338.75
2023-11-15T05:22:36.007Z,101343.69
2023-11-15T05:25:04.539Z,101339.97
2023-11-15T05:27:32.777Z,101335.00
2023-11-15T05:30:01.160Z,101343.50
2023-11-15T05:32:29.536Z,101336.63
2023-11-15T05:34:59.158Z,101345.38
2023-11-15T05:37:27.447Z,101346.59
2023-11-15T05:39:55.824Z,101353.50
2023-11-15T05:42:24.170Z,101347.44
2023-11-15T05:44:52.804Z,101356.56
2023-11-15T05:47:21.134Z,101353.22
2023-11-15T05:49:49.823Z,101355.91
2023-11-15T05:52:19.633Z,101361.88
2023-11-15T05:54:48.240Z,101369.81
2023-11-15T05:57:16.675Z,101359.91
2023-11-15T05:59:45.104Z,101370.72
2023-11-15T06:02:13.597Z,101371.47
2023-11-15T06:04:43.073Z,101373.53
2023-11-15T06:07:10.815Z,101372.03
2023-11-15T06:09:40.389Z,101372.88
2023-11-15T06:12:10.682Z,101378.28
2023-11-15T06:14:38.948Z,101379.31
2023-11-15T06:17:07.290Z,101378.84
2023-11-15T06:19:35.448Z,101372.59
2023-11-15T06:22:03.577Z,101381.63
2023-11-15T06:24:33.536Z,101387.41
2023-11-15T06:27:03.221Z,101390.31
2023-11-15T06:29:33.717Z,101385.25
2023-11-15T06:32:01.956Z,101383.78
2023-11-15T06:34:30.502Z,101386.66
2023-11-15T06:37:01.838Z,101397.03
2023-11-15T06:39:29.902Z,101396.34
2023-11-15T06:41:58.270Z,101392.81
2023-11-15T06:44:27.882Z,101398.41
2023-11-15T06:46:56.665Z,101400.94
2023-11-15T06:49:25.125Z,101405.31
2023-11-15T06:51:53.324Z,101396.16
2023-11-15T06:54:22.167Z,101403.06
2023-11-15T06:56:50.601Z,101405.75
2023-11-15T06:59:19.677Z,101412.03
2023-11-15T07:01:50.204Z,101406.13
2023-11-15T07:04:20.966Z,101418.25
2023-11-15T07:06:49.521Z,101421.13
2023-11-15T07:09:19.518Z,101416.56
2023-11-15T07:11:48.490Z,101413.41
2023-11-15T07:14:17.156Z,101420.97
2023-11-15T07:16:53.747Z,101425.16
2023-11-15T07:19:22.220Z,101433.34
2023-11-15T07:21:50.605Z,101427.66
2023-11-15T07:24:20.483Z,101431.56
2023-11-15T07:26:48.939Z,101440.34
2023-11-15T07:29:23.750Z,101436.59
2023-11-15T07:31:54.661Z,101438.47
2023-11-15T07:34:24.100Z,101445.00
2023-11-15T07:36:54.862Z,101454.16
2023-11-15T07:39:23.217Z,101448.06
2023-11-15T07:41:51.439Z,101460.38
2023-11-15T07:44:31.788Z,101463.09
2023-11-15T07:47:00.793Z,101477.91
2023-11-15T07:49:30.114Z,101473.16
2023-11-15T07:51:58.482Z,101475.84
2023-11-15T07:54:26.552Z,101473.81
2023-11-15T07:56:54.696Z,101472.72
2023-11-15T07:59:23.112Z,101478.66
2023-11-15T08:01:52.896Z,101486.41
2023-11-15T08:04:22.442Z,101478.94
2023-11-15T08:06:50.869Z,101482.28
2023-11-15T08:09:27.166Z,101482.50
2023-11-15T08:11:57.242Z,101479.41
2023-11-15T08:14:27.141Z,101479.41
2023-11-15T08:16:57.201Z,101485.28
2023-11-15T08:19:25.461Z,101485.66
2023-11-15T08:21:54.247Z,101487.81
2023-11-15T08:24:23.250Z,101490.69
2023-11-15T08:26:53.904Z,101494.50
2023-11-15T08:29:22.684Z,101503.66
2023-11-15T08:31:51.181Z,101509.53
2023-11-15T08:34:23.886Z,101518.13
2023-11-15T08:36:54.264Z,101514.59
2023-11-15T08:39:23.998Z,101519.41
2023-11-15T08:41:52.715Z,101517.38
2023-11-15T08:44:21.203Z,101517.66
2023-11-15T08:46:51.490Z,101522.59
2023-11-15T08:49:21.997Z,101522.69
2023-11-15T08:51:52.551Z,101532.47
2023-11-15T08:54:21.899Z,101520.25
2023-11-15T08:56:51.575Z,101534.06
2023-11-15T08:59:25.217Z,101537.44
2023-11-15T09:01:55.628Z,101532.38
2023-11-15T09:04:26.028Z,101539.66
2023-11-15T09:06:55.827Z,101543.47
2023-11-15T09:09:24.091Z,101549.09
2023-11-15T09:11:52.974Z,101550.59
2023-11-15T09:14:22.725Z,101551.69
2023-11-15T09:16:51.971Z,101553.38
2023-11-15T09:19:22.299Z,101552.00
2023-11-15T09:21:52.847Z,101553.97
2023-11-15T09:24:23.801Z,101545.28
2023-11-15T09:26:52.899Z,101537.06
2023-11-15T09:29:21.673Z,101532.88
2023-11-15T09:31:51.444Z,101536.28
2023-11-15T09:34:20.046Z,101530.88
2023-11-15T09:36:49.300Z,101537.13
2023-11-15T09:39:18.855Z,101536.19
2023-11-15T09:41:54.596Z,101531.03
2023-11-15T09:44:24.960Z,101534.47
2023-11-15T09:46:59.126Z,101539.03
2023-11-15T09:49:28.305Z,101533.91
2023-11-15T09:52:00.317Z,101540.84
2023-11-15T09:54:32.651Z,101526.81
2023-11-15T09:57:03.332Z,101534.53
2023-11-15T09:59:31.948Z,101541.06
2023-11-15T10:02:00.590Z,101537.59
2023-11-15T10:04:30.395Z,101528.41
2023-11-15T10:07:05.474Z,101530.94
2023-11-15T10:09:38.127Z,101533.84
2023-11-15T10:12:08.328Z,101538.69
2023-11-15T10:14:52.385Z,101533.00
2023-11-15T10:17:22.125Z,101543.06
2023-11-15T10:19:51.101Z,101547.44
2023-11-15T10:22:20.422Z,101540.22
2023-11-15T10:25:06.951Z,101539.56
2023-11-15T10:27:38.613Z,101538.06
2023-11-15T10:30:14.049Z,101525.38
2023-11-15T10:32:43.821Z,101520.91
2023-11-15T10:35:12.596Z,101526.72
2023-11-15T10:37:50.336Z,101525.88
2023-11-15T10:40:26.803Z,101522.19
2023-11-15T10:42:56.414Z,101534.25
2023-11-15T10:45:26.099Z,101528.44
2023-11-15T10:47:59.657Z,101525.59
2023-11-15T10:50:31.896Z,101532.72
2023-11-15T10:53:04.333Z,101543.00
2023-11-15T10:55:34.073Z,101545.50
2023-11-15T10:58:04.318Z,101544.06
2023-11-15T11:00:35.968Z,101553.72
2023-11-15T11:03:06.706Z,101569.81
2023-11-15T11:06:05.589Z,101561.31
2023-11-15T11:08:39.910Z,101569.69
2023-11-15T11:11:23.626Z,101568.63
2023-11-15T11:14:18.286Z,101567.41
2023-11-15T11:16:47.436Z,101566.41
2023-11-15T11:19:18.937Z,101575.28
2023-11-15T11:22:13.360Z,101561.88
2023-11-15T11:24:47.200Z,101562.13
2023-11-15T11:27:34.946Z,101564.91
2023-11-15T11:30:22.237Z,101571.56
2023-11-15T11:32:51.753Z,101566.13
2023-11-15T11:35:35.872Z,101569.91
2023-11-15T11:38:05.660Z,101559.34
2023-11-15T11:40:40.457Z,101572.13
2023-11-15T11:43:19.697Z,101567.53
2023-11-15T11:45:51.443Z,101564.41
2023-11-15T11:48:21.657Z,101569.19
2023-11-15T11:51:01.968Z,101566.69
2023-11-15T11:53:30.239Z,101579.50
2023-11-15T11:55:58.709Z,101576.09
2023-11-15T11:58:30.063Z,101574.66
2023-11-15T12:01:02.911Z,101583.47
2023-11-15T12:03:31.958Z,101582.69
2023-11-15T12:06:02.095Z,101589.16
2023-11-15T12:08:32.371Z,101586.47
2023-11-15T12:11:01.761Z,101586.47
2023-11-15T12:13:48.525Z,101584.22
2023-11-15T12:17:08.351Z,101591.56
2023-11-15T12:19:43.951Z,101600.94
2023-11-15T12:22:12.481Z,101607.44
2023-11-15T12:24:43.204Z,101605.75
2023-11-15T12:27:11.558Z,101601.81
2023-11-15T12:29:43.110Z,101598.72
2023-11-15T12:32:11.339Z,101593.09
2023-11-15T12:34:40.098Z,101605.47
2023-11-15T12:37:08.291Z,101606.28
2023-11-15T12:39:37.992Z,101606.28
2023-11-15T12:42:06.868Z,101605.03
2023-11-15T12:44:48.468Z,101609.19
2023-11-15T12:47:17.774Z,101612.50
2023-11-15T12:49:46.732Z,101617.97
2023-11-15T12:52:19.389Z,101615.91
2023-11-15T12:54:59.390Z,101611.44
2023-11-15T12:57:27.594Z,101605.00
2023-11-15T12:59:57.747Z,101599.13
2023-11-15T13:02:28.325Z,101608.97
2023-11-15T13:04:57.642Z,101608.72
2023-11-15T13:07:27.994Z,101610.16
2023-11-15T13:09:56.478Z,101609.78
2023-11-15T13:12:28.140Z,101602.91
2023-11-15T13:14:57.856Z,101613.75
2023-11-15T13:17:28.580Z,101615.63
2023-11-15T13:20:00.755Z,101623.56
2023-11-15T13:22:31.271Z,101611.69
2023-11-15T13:24:59.435Z,101617.50
2023-11-15T13:27:27.670Z,101618.81
2023-11-15T13:29:58.813Z,101615.03
2023-11-15T13:32:27.148Z,101623.38
2023-11-15T13:34:55.602Z,101625.50
2023-11-15T13:37:25.608Z,101632.44
2023-11-15T13:39:54.051Z,101634.94
2023-11-15T13:42:22.409Z,101626.81
2023-11-15T13:44:50.720Z,101620.69
2023-11-15T13:47:20.548Z,101623.88
2023-11-15T13:50:14.487Z,101618.41
2023-11-15T13:52:42.980Z,101628.81
2023-11-15T13:55:11.474Z,101625.06
2023-11-15T13:57:40.519Z,101624.25
2023-11-15T14:00:35.741Z,101630.28
2023-11-15T14:03:07.975Z,101634.25
2023-11-15T14:05:36.520Z,101635.44
2023-11-15T14:08:05.774Z,101641.72
2023-11-15T14:10:33.916Z,101647.19
2023-11-15T14:13:03.521Z,101657.00
2023-11-15T14:15:31.800Z,101648.41
2023-11-15T14:18:00.043Z,101646.09
2023-11-15T14:20:30.441Z,101643.59
2023-11-15T14:22:58.821Z,101643.41
2023-11-15T14:25:33.103Z,101634.63
2023-11-15T14:28:03.747Z,101634.38
2023-11-15T14:30:32.067Z,101625.81
2023-11-15T14:33:00.431Z,101627.72
2023-11-15T14:35:29.971Z,101630.44
2023-11-15T14:37:58.327Z,101633.31
2023-11-15T14:40:26.587Z,101636.81
2023-11-15T14:42:57.225Z,101642.94
2023-11-15T14:45:27.020Z,101642.47
2023-11-15T14:47:55.694Z,101644.78
2023-11-15T14:50:24.740Z,101641.81
2023-11-15T14:53:08.073Z,101649.31
2023-11-15T14:55:37.695Z,101647.25
2023-11-15T14:58:05.936Z,101648.25
2023-11-15T15:00:35.447Z,101649.94
2023-11-15T15:03:06.238Z,101657.81
2023-11-15T15:05:34.515Z,101666.19
2023-11-15T15:08:05.604Z,101664.63
2023-11-15T15:10:33.752Z,101667.75
2023-11-15T15:13:01.919Z,101667.34
2023-11-15T15:15:34.415Z,101663.94
2023-11-15T15:18:02.843Z,101667.00
2023-11-15T15:20:30.972Z,101664.28
2023-11-15T15:22:59.861Z,101657.19
2023-11-15T15:25:29.395Z,101665.25
2023-11-15T15:27:57.551Z,101671.31
2023-11-15T15:30:33.565Z,101676.53
2023-11-15T15:33:03.143Z,101677.94
2023-11-15T15:35:32.048Z,101673.91
2023-11-15T15:38:01.052Z,101681.22
2023-11-15T15:40:36.176Z,101686.47
2023-11-15T15:47:54.221Z,101674.44
2023-11-15T15:50:22.722Z,101678.22
2023-11-15T15:52:51.036Z,101679.03
2023-11-15T15:55:19.516Z,101678.59
2023-11-15T15:57:49.116Z,101676.06
2023-11-15T16:00:18.807Z,101679.00
2023-11-15T16:02:48.155Z,101681.84
2023-11-15T16:05:19.245Z,101676.81
2023-11-15T16:07:47.575Z,101685.91
2023-11-15T16:10:16.126Z,101682.09
2023-11-15T16:12:47.205Z,101682.50
2023-11-15T16:15:19.458Z,101685.00
2023-11-15T16:17:50.116Z,101690.09
2023-11-15T16:20:20.599Z,101684.69
2023-11-15T16:22:48.820Z,101691.06
2023-11-15T16:25:17.234Z,101686.84
2023-11-15T16:27:46.536Z,101693.06
2023-11-15T16:30:16.259Z,101698.38
2023-11-15T16:32:44.756Z,101688.31
2023-11-15T16:35:13.564Z,101705.13
2023-11-15T16:37:43.199Z,101701.13
2023-11-15T16:40:12.622Z,101705.50
2023-11-15T16:42:41.533Z,101712.34
2023-11-15T16:45:11.785Z,101717.78
2023-11-15T16:47:45.161Z,101723.19
2023-11-15T16:50:13.255Z,101728.03
2023-11-15T16:52:41.290Z,101720.97
2023-11-15T16:55:13.719Z,101729.91
2023-11-15T16:57:43.068Z,101723.19
2023-11-15T17:00:14.732Z,101722.06
2023-11-15T17:02:45.461Z,101722.81
2023-11-15T17:05:13.805Z,101711.31
2023-11-15T17:07:42.212Z,101710.38
2023-11-15T17:10:14.183Z,101713.47
2023-11-15T17:12:43.688Z,101714.22
2023-11-15T17:15:21.526Z,101720.00
2023-11-15T17:17:52.795Z,101716.63
2023-11-15T17:20:21.240Z,101708.22
2023-11-15T17:22:49.550Z,101704.59
2023-11-15T17:25:20.021Z,101703.94
2023-11-15T17:27:58.539Z,101705.16
2023-11-15T17:30:27.301Z,101703.66
2023-11-15T17:33:02.573Z,101695.91
2023-11-15T17:35:31.012Z,101713.50
2023-11-15T17:37:59.344Z,101710.78
2023-11-15T17:40:32.404Z,101706.94
2023-11-15T17:43:01.413Z,101712.50
2023-11-15T17:45:31.851Z,101709.47
2023-11-15T17:48:02.547Z,101709.47
2023-11-15T17:50:31.565Z,101707.44
2023-11-15T17:53:00.119Z,101703.41
2023-11-15T17:55:29.644Z,101701.44
2023-11-15T17:57:57.953Z,101706.00
2023-11-15T18:00:29.730Z,101708.44
2023-11-15T18:02:58.180Z,101712.13
2023-11-15T18:05:28.555Z,101717.09
2023-11-15T18:07:57.009Z,101718.13
2023-11-15T18:10:29.676Z,101718.81
2023-11-15T18:12:58.587Z,101711.56
2023-11-15T18:15:29.754Z,101706.03
2023-11-15T18:17:59.564Z,101716.38
2023-11-15T18:20:31.009Z,101725.88
2023-11-15T18:22:59.307Z,101730.44
2023-11-15T18:25:31.661Z,101733.50
2023-11-15T18:28:01.134Z,101728.63
2023-11-15T18:30:29.533Z,101729.66
2023-11-15T18:33:00.448Z,101732.38
2023-11-15T18:35:30.216Z,101725.28
2023-11-15T18:38:01.632Z,101723.59
2023-11-15T18:40:29.856Z,101732.25
2023-11-15T18:42:59.196Z,101725.97
2023-11-15T18:45:27.539Z,101735.50
2023-11-15T18:47:55.964Z,101735.00
2023-11-15T18:50:24.145Z,101737.88
2023-11-15T18:52:56.653Z,101739.91
2023-11-15T18:55:25.901Z,101730.28
2023-11-15T18:57:57.578Z,101732.00
2023-11-15T19:00:27.480Z,101734.56
2023-11-15T19:02:59.958Z,101734.75
2023-11-15T19:05:29.216Z,101740.53
2023-11-15T19:07:58.841Z,101746.94
2023-11-15T19:10:28.988Z,101748.31
2023-11-15T19:12:57.700Z,101748.16
2023-11-15T19:15:25.981Z,101758.97
2023-11-15T19:17:55.061Z,101741.25
2023-11-15T19:20:24.087Z,101746.66
2023-11-15T19:23:03.855Z,101735.00
2023-11-15T19:25:32.751Z,101742.63
2023-11-15T19:28:01.578Z,101738.22
2023-11-15T19:30:29.850Z,101738.44
2023-11-15T19:32:58.204Z,101732.19
2023-11-15T19:35:31.311Z,101735.72
2023-11-15T19:38:00.618Z,101729.66
2023-11-15T19:40:31.290Z,101737.06
2023-11-15T19:42:59.880Z,101746.03
2023-11-15T19:45:28.181Z,101737.91
2023-11-15T19:47:56.630Z,101732.50
2023-11-15T19:50:25.052Z,101740.94
2023-11-15T19:52:57.131Z,101741.28
2023-11-15T19:55:31.750Z,101737.75
2023-11-15T19:58:01.704Z,101733.75
2023-11-15T20:00:34.161Z,101746.03
2023-11-15T20:03:04.908Z,101756.00
2023-11-15T20:05:36.633Z,101749.94
2023-11-15T20:08:05.273Z,101752.81
2023-11-15T20:10:33.708Z,101747.41
2023-11-15T20:13:05.335Z,101751.41
2023-11-15T20:15:33.781Z,101749.94
2023-11-15T20:18:03.423Z,101750.09
2023-11-15T20:20:31.886Z,101741.31
2023-11-15T20:23:01.731Z,101743.88
2023-11-15T20:25:31.590Z,101744.69
2023-11-15T20:28:00.580Z,101737.63
2023-11-15T20:30:30.321Z,101746.38
2023-11-15T20:32:59.179Z,101731.19
2023-11-15T20:35:27.440Z,101731.34
2023-11-15T20:37:56.288Z,101734.41
2023-11-15T20:40:26.714Z,101729.22
2023-11-15T20:42:54.863Z,101730.41
2023-11-15T20:45:24.529Z,101734.28
2023-11-15T20:47:54.247Z,101737.97
2023-11-15T20:50:23.092Z,101740.41
2023-11-15T20:52:51.486Z,101735.31
2023-11-15T20:55:25.141Z,101741.06
2023-11-15T20:57:53.657Z,101743.13
2023-11-15T21:00:27.207Z,101741.94
2023-11-15T21:02:57.367Z,101744.16
2023-11-15T21:05:26.376Z,101744.84
2023-11-15T21:07:54.698Z,101746.03
2023-11-15T21:10:25.068Z,101747.22
2023-11-15T21:12:53.463Z,101746.53
2023-11-15T21:15:21.628Z,101747.91
2023-11-15T21:17:49.844Z,101748.59
2023-11-15T21:20:19.700Z,101748.94
2023-11-15T21:22:48.088Z,101737.66
2023-11-15T21:25:16.262Z,101724.66
2023-11-15T21:27:47.167Z,101727.72
2023-11-15T21:30:17.537Z,101728.06
2023-11-15T21:32:46.002Z,101724.19
2023-11-15T21:35:14.411Z,101732.44
2023-11-15T21:37:45.042Z,101718.31
2023-11-15T21:40:16.281Z,101719.63
2023-11-15T21:42:46.341Z,101727.03
2023-11-15T21:45:15.023Z,101722.34
2023-11-15T21:47:45.778Z,101726.41
2023-11-15T21:50:16.798Z,101736.50
2023-11-15T21:52:46.568Z,101738.53
2023-11-15T21:55:16.049Z,101741.72
2023-11-15T21:57:44.629Z,101741.06
2023-11-15T22:00:17.058Z,101737.19
2023-11-15T22:02:47.164Z,101739.56
2023-11-15T22:05:15.909Z,101736.84
2023-11-15T22:07:44.805Z,101733.63
2023-11-15T22:10:15.980Z,101741.22
2023-11-15T22:12:44.466Z,101739.69
2023-11-15T22:15:12.917Z,101736.47
2023-11-15T22:17:42.017Z,101726.69
2023-11-15T22:20:12.545Z,101723.50
2023-11-15T22:22:44.305Z,101725.34
2023-11-15T22:29:45.540Z,101723.81
2023-11-15T22:32:13.793Z,101719.44
2023-11-15T22:34:42.047Z,101727.84
2023-11-15T22:37:10.167Z,101713.19
2023-11-15T22:39:39.146Z,101722.78
2023-11-15T22:42:08.142Z,101724.81
2023-11-15T22:44:36.326Z,101720.59
2023-11-15T22:47:06.448Z,101719.72
2023-11-15T22:49:34.592Z,101728.00
2023-11-15T22:52:02.656Z,101717.91
2023-11-15T22:54:30.832Z,101717.91
2023-11-15T22:56:59.125Z,101710.81
2023-11-15T22:59:27.741Z,101716.84
2023-11-15T23:01:55.911Z,101722.25
2023-11-15T23:04:25.566Z,101727.97
2023-11-15T23:06:55.316Z,101729.97
2023-11-15T23:09:23.715Z,101708.75
2023-11-15T23:11:51.832Z,101712.78
2023-11-15T23:14:20.451Z,101711.78
2023-11-15T23:16:48.615Z,101705.72
2023-11-15T23:19:17.352Z,101703.34
2023-11-15T23:21:55.108Z,101702.50
2023-11-15T23:24:29.897Z,101705.22
2023-11-15T23:26:59.421Z,101704.38
2023-11-15T23:29:28.592Z,101704.38
2023-11-15T23:31:57.435Z,101696.59
2023-11-15T23:34:26.244Z,101703.69
2023-11-15T23:36:57.205Z,101713.63
2023-11-15T23:39:25.879Z,101698.28
2023-11-15T23:41:55.049Z,101697.28
2023-11-15T23:44:23.212Z,101686.16
2023-11-15T23:46:52.869Z,101690.56
2023-11-15T23:49:22.232Z,101694.94
2023-11-15T23:51:51.017Z,101688.88
2023-11-15T23:54:20.508Z,101689.41
2023-11-15T23:56:48.652Z,101687.53
2023-11-15T23:59:16.914Z,101688.38
